sensor_id;sensor_type;location;lat;lon;timestamp;pressure;altitude;pressure_sealevel;temperature;humidity
6224;BME280;3145;42.726;23.342;2022-12-18T00:01:49;96086.59;;;6.48;100.00
6224;BME280;3145;42.726;23.342;2022-12-18T00:04:21;96089.03;;;6.49;100.00
6224;BME280;3145;42.726;23.342;2022-12-18T00:06:48;96082.38;;;6.36;100.00
6224;BME280;3145;42.726;23.342;2022-12-18T00:09:15;96092.34;;;6.42;100.00
6224;BME280;3145;42.726;23.342;2022-12-18T00:11:42;96098.03;;;6.47;100.00
6224;BME280;3145;42.726;23.342;2022-12-18T00:14:11;96087.78;;;6.34;100.00
6224;BME280;3145;42.726;23.342;2022-12-18T00:16:39;96086.09;;;6.24;100.00
6224;BME280;3145;42.726;23.342;2022-12-18T00:19:06;96101.19;;;6.41;100.00
6224;BME280;3145;42.726;23.342;2022-12-18T00:21:33;96105.75;;;6.39;100.00
6224;BME280;3145;42.726;23.342;2022-12-18T00:24:00;96110.84;;;6.31;100.00
6224;BME280;3145;42.726;23.342;2022-12-18T00:26:28;96085.66;;;6.19;100.00
6224;BME280;3145;42.726;23.342;2022-12-18T00:28:58;96123.53;;;6.26;100.00
6224;BME280;3145;42.726;23.342;2022-12-18T00:31:27;96120.19;;;6.14;100.00
6224;BME280;3145;42.726;23.342;2022-12-18T00:33:54;96123.75;;;6.13;100.00
6224;BME280;3145;42.726;23.342;2022-12-18T00:36:23;96121.59;;;6.18;100.00
6224;BME280;3145;42.726;23.342;2022-12-18T00:38:50;96127.91;;;6.16;100.00
6224;BME280;3145;42.726;23.342;2022-12-18T00:41:17;96106.28;;;5.93;100.00
6224;BME280;3145;42.726;23.342;2022-12-18T00:44:06;96130.09;;;6.11;100.00
6224;BME280;3145;42.726;23.342;2022-12-18T00:46:33;96057.56;;;5.61;100.00
6224;BME280;3145;42.726;23.342;2022-12-18T00:49:00;95940.22;;;4.74;100.00
6224;BME280;3145;42.726;23.342;2022-12-18T00:51:26;96132.69;;;6.01;100.00
6224;BME280;3145;42.726;23.342;2022-12-18T00:53:53;96133.38;;;6.03;100.00
6224;BME280;3145;42.726;23.342;2022-12-18T00:56:20;96114.50;;;5.79;100.00
6224;BME280;3145;42.726;23.342;2022-12-18T00:58:47;96152.38;;;5.96;100.00
6224;BME280;3145;42.726;23.342;2022-12-18T01:01:14;96106.03;;;5.76;100.00
6224;BME280;3145;42.726;23.342;2022-12-18T01:03:42;96155.28;;;5.93;100.00
6224;BME280;3145;42.726;23.342;2022-12-18T01:06:12;96152.53;;;5.94;100.00
6224;BME280;3145;42.726;23.342;2022-12-18T01:08:39;96153.09;;;5.98;100.00
6224;BME280;3145;42.726;23.342;2022-12-18T01:11:08;96157.19;;;5.91;100.00
6224;BME280;3145;42.726;23.342;2022-12-18T01:13:35;96151.28;;;5.89;100.00
6224;BME280;3145;42.726;23.342;2022-12-18T01:16:01;96159.00;;;5.90;100.00
6224;BME280;3145;42.726;23.342;2022-12-18T01:18:28;96160.50;;;5.83;100.00
6224;BME280;3145;42.726;23.342;2022-12-18T01:20:56;96162.50;;;5.80;100.00
6224;BME280;3145;42.726;23.342;2022-12-18T01:23:27;96156.81;;;5.75;100.00
6224;BME280;3145;42.726;23.342;2022-12-18T01:25:54;96179.94;;;5.81;100.00
6224;BME280;3145;42.726;23.342;2022-12-18T01:28:21;96177.66;;;5.76;100.00
6224;BME280;3145;42.726;23.342;2022-12-18T01:30:47;96180.03;;;5.79;100.00
6224;BME280;3145;42.726;23.342;2022-12-18T01:33:14;96163.28;;;5.71;100.00
6224;BME280;3145;42.726;23.342;2022-12-18T01:35:41;96178.22;;;5.80;100.00
6224;BME280;3145;42.726;23.342;2022-12-18T01:38:09;96184.00;;;5.74;100.00
6224;BME280;3145;42.726;23.342;2022-12-18T01:40:36;96156.50;;;5.48;100.00
6224;BME280;3145;42.726;23.342;2022-12-18T01:43:03;96192.63;;;5.65;100.00
6224;BME280;3145;42.726;23.342;2022-12-18T01:45:31;96184.72;;;5.55;100.00
6224;BME280;3145;42.726;23.342;2022-12-18T01:48:00;96193.19;;;5.48;100.00
6224;BME280;3145;42.726;23.342;2022-12-18T01:50:31;96194.41;;;5.44;100.00
6224;BME280;3145;42.726;23.342;2022-12-18T01:53:02;96196.78;;;5.47;100.00
6224;BME280;3145;42.726;23.342;2022-12-18T01:55:36;96197.13;;;5.42;100.00
6224;BME280;3145;42.726;23.342;2022-12-18T01:58:03;96198.81;;;5.43;100.00
6224;BME280;3145;42.726;23.342;2022-12-18T02:00:31;96178.69;;;5.23;100.00
6224;BME280;3145;42.726;23.342;2022-12-18T02:02:58;96163.22;;;5.20;100.00
6224;BME280;3145;42.726;23.342;2022-12-18T02:05:32;96188.97;;;5.36;100.00
6224;BME280;3145;42.726;23.342;2022-12-18T02:08:07;96192.66;;;5.33;100.00
6224;BME280;3145;42.726;23.342;2022-12-18T02:10:41;96180.50;;;5.12;100.00
6224;BME280;3145;42.726;23.342;2022-12-18T02:13:14;96202.63;;;5.19;100.00
6224;BME280;3145;42.726;23.342;2022-12-18T02:15:51;96197.06;;;5.12;100.00
6224;BME280;3145;42.726;23.342;2022-12-18T02:18:23;96216.16;;;5.24;100.00
6224;BME280;3145;42.726;23.342;2022-12-18T02:20:54;96219.75;;;5.23;100.00
6224;BME280;3145;42.726;23.342;2022-12-18T02:23:41;96212.84;;;5.22;100.00
6224;BME280;3145;42.726;23.342;2022-12-18T02:26:16;96218.34;;;5.19;100.00
6224;BME280;3145;42.726;23.342;2022-12-18T02:28:46;96225.81;;;5.23;100.00
6224;BME280;3145;42.726;23.342;2022-12-18T02:31:17;96227.84;;;5.20;100.00
6224;BME280;3145;42.726;23.342;2022-12-18T02:33:49;96184.63;;;4.93;100.00
6224;BME280;3145;42.726;23.342;2022-12-18T02:36:19;96198.06;;;4.89;100.00
6224;BME280;3145;42.726;23.342;2022-12-18T02:38:49;96235.50;;;5.12;100.00
6224;BME280;3145;42.726;23.342;2022-12-18T02:41:18;96232.63;;;5.15;100.00
6224;BME280;3145;42.726;23.342;2022-12-18T02:43:49;96230.66;;;5.07;100.00
6224;BME280;3145;42.726;23.342;2022-12-18T02:46:32;96202.22;;;4.91;100.00
6224;BME280;3145;42.726;23.342;2022-12-18T02:49:06;96238.50;;;5.07;100.00
6224;BME280;3145;42.726;23.342;2022-12-18T02:51:45;96224.59;;;4.84;100.00
6224;BME280;3145;42.726;23.342;2022-12-18T02:54:21;96250.06;;;4.93;100.00
6224;BME280;3145;42.726;23.342;2022-12-18T02:56:54;96245.56;;;4.84;100.00
6224;BME280;3145;42.726;23.342;2022-12-18T02:59:25;96253.16;;;4.87;100.00
6224;BME280;3145;42.726;23.342;2022-12-18T03:02:00;96224.38;;;4.76;100.00
6224;BME280;3145;42.726;23.342;2022-12-18T03:04:33;96224.16;;;4.79;100.00
6224;BME280;3145;42.726;23.342;2022-12-18T03:07:07;96205.25;;;4.76;100.00
6224;BME280;3145;42.726;23.342;2022-12-18T03:09:36;96245.53;;;4.95;100.00
6224;BME280;3145;42.726;23.342;2022-12-18T03:12:10;96229.91;;;4.73;100.00
6224;BME280;3145;42.726;23.342;2022-12-18T03:14:50;96244.13;;;4.80;100.00
6224;BME280;3145;42.726;23.342;2022-12-18T03:17:20;96204.72;;;4.50;100.00
6224;BME280;3145;42.726;23.342;2022-12-18T03:19:50;96250.22;;;4.81;100.00
6224;BME280;3145;42.726;23.342;2022-12-18T03:22:18;96250.09;;;4.71;100.00
6224;BME280;3145;42.726;23.342;2022-12-18T03:24:47;96214.47;;;4.37;100.00
6224;BME280;3145;42.726;23.342;2022-12-18T03:27:18;96268.78;;;4.78;100.00
6224;BME280;3145;42.726;23.342;2022-12-18T03:29:48;96247.25;;;4.52;100.00
6224;BME280;3145;42.726;23.342;2022-12-18T03:32:21;96278.66;;;4.63;100.00
6224;BME280;3145;42.726;23.342;2022-12-18T03:34:50;96282.00;;;4.65;100.00
6224;BME280;3145;42.726;23.342;2022-12-18T03:37:19;96281.75;;;4.68;100.00
6224;BME280;3145;42.726;23.342;2022-12-18T03:39:46;96276.50;;;4.68;100.00
6224;BME280;3145;42.726;23.342;2022-12-18T03:42:20;96292.09;;;4.70;100.00
6224;BME280;3145;42.726;23.342;2022-12-18T03:44:56;96286.16;;;4.68;100.00
6224;BME280;3145;42.726;23.342;2022-12-18T03:47:27;96297.72;;;4.65;100.00
6224;BME280;3145;42.726;23.342;2022-12-18T03:49:58;96308.75;;;4.58;100.00
6224;BME280;3145;42.726;23.342;2022-12-18T03:52:34;96186.19;;;3.87;100.00
6224;BME280;3145;42.726;23.342;2022-12-18T03:55:03;96276.75;;;4.43;100.00
6224;BME280;3145;42.726;23.342;2022-12-18T03:57:32;96289.50;;;4.48;100.00
6224;BME280;3145;42.726;23.342;2022-12-18T04:00:04;96306.38;;;4.66;100.00
6224;BME280;3145;42.726;23.342;2022-12-18T04:02:33;96310.28;;;4.60;100.00
6224;BME280;3145;42.726;23.342;2022-12-18T04:05:04;96309.47;;;4.60;100.00
6224;BME280;3145;42.726;23.342;2022-12-18T04:07:31;96327.91;;;4.58;100.00
6224;BME280;3145;42.726;23.342;2022-12-18T04:10:01;96321.25;;;4.54;100.00
6224;BME280;3145;42.726;23.342;2022-12-18T04:12:29;96329.78;;;4.56;100.00
6224;BME280;3145;42.726;23.342;2022-12-18T04:14:57;96322.22;;;4.53;100.00
6224;BME280;3145;42.726;23.342;2022-12-18T04:17:24;96333.16;;;4.58;100.00
6224;BME280;3145;42.726;23.342;2022-12-18T04:19:51;96342.19;;;4.54;100.00
6224;BME280;3145;42.726;23.342;2022-12-18T04:22:18;96326.94;;;4.48;100.00
6224;BME280;3145;42.726;23.342;2022-12-18T04:24:44;96341.00;;;4.58;100.00
6224;BME280;3145;42.726;23.342;2022-12-18T04:27:11;96347.19;;;4.57;100.00
6224;BME280;3145;42.726;23.342;2022-12-18T04:29:38;96335.75;;;4.47;100.00
6224;BME280;3145;42.726;23.342;2022-12-18T04:32:06;96356.44;;;4.50;100.00
6224;BME280;3145;42.726;23.342;2022-12-18T04:34:33;96354.16;;;4.46;100.00
6224;BME280;3145;42.726;23.342;2022-12-18T04:36:59;96363.81;;;4.45;100.00
6224;BME280;3145;42.726;23.342;2022-12-18T04:39:26;96366.91;;;4.50;100.00
6224;BME280;3145;42.726;23.342;2022-12-18T04:41:53;96336.69;;;4.35;100.00
6224;BME280;3145;42.726;23.342;2022-12-18T04:44:20;96361.19;;;4.34;100.00
6224;BME280;3145;42.726;23.342;2022-12-18T04:46:46;96375.81;;;4.37;100.00
6224;BME280;3145;42.726;23.342;2022-12-18T04:49:14;96374.00;;;4.26;100.00
6224;BME280;3145;42.726;23.342;2022-12-18T04:51:41;96375.91;;;4.35;100.00
6224;BME280;3145;42.726;23.342;2022-12-18T04:54:08;96384.72;;;4.34;100.00
6224;BME280;3145;42.726;23.342;2022-12-18T04:56:35;96238.94;;;3.36;100.00
6224;BME280;3145;42.726;23.342;2022-12-18T04:59:01;96391.34;;;4.27;100.00
6224;BME280;3145;42.726;23.342;2022-12-18T05:01:28;96393.97;;;4.27;100.00
6224;BME280;3145;42.726;23.342;2022-12-18T05:03:55;96371.31;;;4.04;100.00
6224;BME280;3145;42.726;23.342;2022-12-18T05:06:23;96398.94;;;4.19;100.00
6224;BME280;3145;42.726;23.342;2022-12-18T05:08:49;96393.72;;;4.19;100.00
6224;BME280;3145;42.726;23.342;2022-12-18T05:11:16;96155.72;;;2.73;100.00
6224;BME280;3145;42.726;23.342;2022-12-18T05:13:44;96405.38;;;4.26;100.00
6224;BME280;3145;42.726;23.342;2022-12-18T05:16:11;96408.81;;;4.27;100.00
6224;BME280;3145;42.726;23.342;2022-12-18T05:18:38;96408.97;;;4.25;100.00
6224;BME280;3145;42.726;23.342;2022-12-18T05:21:05;96407.97;;;4.15;100.00
6224;BME280;3145;42.726;23.342;2022-12-18T05:23:35;96421.19;;;4.25;100.00
6224;BME280;3145;42.726;23.342;2022-12-18T05:26:04;96428.09;;;4.26;100.00
6224;BME280;3145;42.726;23.342;2022-12-18T05:28:32;96389.63;;;4.04;100.00
6224;BME280;3145;42.726;23.342;2022-12-18T05:31:01;96442.97;;;4.36;100.00
6224;BME280;3145;42.726;23.342;2022-12-18T05:33:30;96413.41;;;4.12;100.00
6224;BME280;3145;42.726;23.342;2022-12-18T05:35:58;96432.22;;;4.17;100.00
6224;BME280;3145;42.726;23.342;2022-12-18T05:38:26;96417.09;;;4.10;100.00
6224;BME280;3145;42.726;23.342;2022-12-18T05:40:55;96448.03;;;4.27;100.00
6224;BME280;3145;42.726;23.342;2022-12-18T05:43:25;96406.25;;;4.03;100.00
6224;BME280;3145;42.726;23.342;2022-12-18T05:45:53;96441.25;;;4.24;100.00
6224;BME280;3145;42.726;23.342;2022-12-18T05:48:20;96455.34;;;4.34;100.00
6224;BME280;3145;42.726;23.342;2022-12-18T05:50:49;96458.06;;;4.33;100.00
6224;BME280;3145;42.726;23.342;2022-12-18T05:53:17;96456.25;;;4.22;100.00
6224;BME280;3145;42.726;23.342;2022-12-18T05:55:45;96457.59;;;4.28;100.00
6224;BME280;3145;42.726;23.342;2022-12-18T05:58:13;96468.25;;;4.25;100.00
6224;BME280;3145;42.726;23.342;2022-12-18T06:00:42;96442.53;;;4.08;100.00
6224;BME280;3145;42.726;23.342;2022-12-18T06:03:10;96463.09;;;4.12;100.00
6224;BME280;3145;42.726;23.342;2022-12-18T06:05:37;96472.84;;;4.10;100.00
6224;BME280;3145;42.726;23.342;2022-12-18T06:08:04;96473.66;;;4.11;100.00
6224;BME280;3145;42.726;23.342;2022-12-18T06:10:31;96469.28;;;4.11;100.00
6224;BME280;3145;42.726;23.342;2022-12-18T06:12:58;96485.19;;;4.08;100.00
6224;BME280;3145;42.726;23.342;2022-12-18T06:15:26;96473.28;;;4.04;100.00
6224;BME280;3145;42.726;23.342;2022-12-18T06:17:53;96473.06;;;4.07;100.00
6224;BME280;3145;42.726;23.342;2022-12-18T06:20:20;96482.34;;;4.11;100.00
6224;BME280;3145;42.726;23.342;2022-12-18T06:22:47;96484.47;;;4.06;100.00
6224;BME280;3145;42.726;23.342;2022-12-18T06:25:14;96487.34;;;4.14;100.00
6224;BME280;3145;42.726;23.342;2022-12-18T06:27:41;96493.53;;;4.13;100.00
6224;BME280;3145;42.726;23.342;2022-12-18T06:30:09;96491.22;;;4.21;100.00
6224;BME280;3145;42.726;23.342;2022-12-18T06:32:37;96494.34;;;4.14;100.00
6224;BME280;3145;42.726;23.342;2022-12-18T06:35:05;96502.94;;;4.16;100.00
6224;BME280;3145;42.726;23.342;2022-12-18T06:37:32;96485.69;;;4.13;100.00
6224;BME280;3145;42.726;23.342;2022-12-18T06:39:58;96501.25;;;4.15;100.00
6224;BME280;3145;42.726;23.342;2022-12-18T06:42:26;96514.47;;;4.13;100.00
6224;BME280;3145;42.726;23.342;2022-12-18T06:44:53;96509.84;;;4.17;100.00
6224;BME280;3145;42.726;23.342;2022-12-18T06:47:19;96373.59;;;3.27;100.00
6224;BME280;3145;42.726;23.342;2022-12-18T06:49:47;96521.13;;;4.17;100.00
6224;BME280;3145;42.726;23.342;2022-12-18T06:52:14;96508.31;;;4.02;100.00
6224;BME280;3145;42.726;23.342;2022-12-18T06:54:41;96459.56;;;3.77;100.00
6224;BME280;3145;42.726;23.342;2022-12-18T06:57:08;96460.63;;;3.75;100.00
6224;BME280;3145;42.726;23.342;2022-12-18T06:59:34;96531.59;;;4.17;100.00
6224;BME280;3145;42.726;23.342;2022-12-18T07:02:01;96541.09;;;4.18;100.00
6224;BME280;3145;42.726;23.342;2022-12-18T07:04:28;96520.13;;;4.07;100.00
6224;BME280;3145;42.726;23.342;2022-12-18T07:06:57;96477.75;;;3.79;100.00
6224;BME280;3145;42.726;23.342;2022-12-18T07:09:23;96537.25;;;4.11;100.00
6224;BME280;3145;42.726;23.342;2022-12-18T07:11:50;96545.59;;;4.16;100.00
6224;BME280;3145;42.726;23.342;2022-12-18T07:14:17;96545.09;;;4.11;100.00
6224;BME280;3145;42.726;23.342;2022-12-18T07:16:44;96547.50;;;4.14;100.00
6224;BME280;3145;42.726;23.342;2022-12-18T07:19:10;96533.78;;;4.11;100.00
6224;BME280;3145;42.726;23.342;2022-12-18T07:21:37;96550.63;;;4.19;100.00
6224;BME280;3145;42.726;23.342;2022-12-18T07:24:06;96509.16;;;4.02;100.00
6224;BME280;3145;42.726;23.342;2022-12-18T07:26:33;96531.06;;;4.12;100.00
6224;BME280;3145;42.726;23.342;2022-12-18T07:28:59;96553.13;;;4.21;100.00
6224;BME280;3145;42.726;23.342;2022-12-18T07:31:27;96549.63;;;4.09;100.00
6224;BME280;3145;42.726;23.342;2022-12-18T07:33:54;96553.69;;;4.13;100.00
6224;BME280;3145;42.726;23.342;2022-12-18T07:36:20;96477.88;;;3.41;100.00
6224;BME280;3145;42.726;23.342;2022-12-18T07:38:47;96556.94;;;4.04;100.00
6224;BME280;3145;42.726;23.342;2022-12-18T07:41:17;96555.38;;;4.02;100.00
6224;BME280;3145;42.726;23.342;2022-12-18T07:43:45;96552.88;;;4.00;100.00
6224;BME280;3145;42.726;23.342;2022-12-18T07:46:12;96563.00;;;4.05;100.00
6224;BME280;3145;42.726;23.342;2022-12-18T07:48:40;96562.91;;;4.06;100.00
6224;BME280;3145;42.726;23.342;2022-12-18T07:51:07;96542.56;;;3.86;100.00
6224;BME280;3145;42.726;23.342;2022-12-18T07:53:41;96572.41;;;4.07;100.00
6224;BME280;3145;42.726;23.342;2022-12-18T07:56:10;96569.09;;;4.05;100.00
6224;BME280;3145;42.726;23.342;2022-12-18T07:58:39;96580.16;;;4.09;100.00
6224;BME280;3145;42.726;23.342;2022-12-18T08:01:07;96578.59;;;4.06;100.00
6224;BME280;3145;42.726;23.342;2022-12-18T08:03:34;96586.22;;;4.09;100.00
6224;BME280;3145;42.726;23.342;2022-12-18T08:06:02;96591.59;;;4.19;100.00
6224;BME280;3145;42.726;23.342;2022-12-18T08:08:30;96595.00;;;4.08;100.00
6224;BME280;3145;42.726;23.342;2022-12-18T08:10:57;96587.88;;;4.10;100.00
6224;BME280;3145;42.726;23.342;2022-12-18T08:13:24;96591.47;;;4.09;100.00
6224;BME280;3145;42.726;23.342;2022-12-18T08:16:00;96574.34;;;3.93;100.00
6224;BME280;3145;42.726;23.342;2022-12-18T08:18:28;96604.41;;;4.11;100.00
6224;BME280;3145;42.726;23.342;2022-12-18T08:20:55;96615.69;;;4.11;100.00
6224;BME280;3145;42.726;23.342;2022-12-18T08:23:22;96613.59;;;4.16;100.00
6224;BME280;3145;42.726;23.342;2022-12-18T08:25:49;96613.59;;;4.16;100.00
6224;BME280;3145;42.726;23.342;2022-12-18T08:28:16;96624.03;;;4.16;100.00
6224;BME280;3145;42.726;23.342;2022-12-18T08:30:43;96621.31;;;4.18;100.00
6224;BME280;3145;42.726;23.342;2022-12-18T08:33:11;96597.31;;;4.00;100.00
6224;BME280;3145;42.726;23.342;2022-12-18T08:35:38;96579.75;;;4.02;100.00
6224;BME280;3145;42.726;23.342;2022-12-18T08:38:05;96630.31;;;4.26;100.00
6224;BME280;3145;42.726;23.342;2022-12-18T08:40:31;96621.09;;;4.33;100.00
6224;BME280;3145;42.726;23.342;2022-12-18T08:42:58;96608.31;;;4.29;100.00
6224;BME280;3145;42.726;23.342;2022-12-18T08:45:42;96579.25;;;3.97;100.00
6224;BME280;3145;42.726;23.342;2022-12-18T08:48:11;96630.50;;;4.36;100.00
6224;BME280;3145;42.726;23.342;2022-12-18T08:50:37;96633.25;;;4.22;100.00
6224;BME280;3145;42.726;23.342;2022-12-18T08:53:04;96626.75;;;4.27;100.00
6224;BME280;3145;42.726;23.342;2022-12-18T08:55:31;96635.75;;;4.23;100.00
6224;BME280;3145;42.726;23.342;2022-12-18T08:57:57;96639.50;;;4.32;100.00
6224;BME280;3145;42.726;23.342;2022-12-18T09:00:24;96637.81;;;4.31;100.00
6224;BME280;3145;42.726;23.342;2022-12-18T09:02:51;96637.19;;;4.27;100.00
6224;BME280;3145;42.726;23.342;2022-12-18T09:05:19;96618.28;;;4.24;100.00
6224;BME280;3145;42.726;23.342;2022-12-18T09:07:45;96618.78;;;4.29;100.00
6224;BME280;3145;42.726;23.342;2022-12-18T09:10:12;96562.72;;;3.97;100.00
6224;BME280;3145;42.726;23.342;2022-12-18T09:12:39;96628.16;;;4.44;100.00
6224;BME280;3145;42.726;23.342;2022-12-18T09:15:06;96610.38;;;4.36;100.00
6224;BME280;3145;42.726;23.342;2022-12-18T09:17:33;96635.22;;;4.54;100.00
6224;BME280;3145;42.726;23.342;2022-12-18T09:19:59;96637.13;;;4.52;100.00
6224;BME280;3145;42.726;23.342;2022-12-18T09:22:28;96634.78;;;4.60;100.00
6224;BME280;3145;42.726;23.342;2022-12-18T09:24:54;96608.06;;;4.44;100.00
6224;BME280;3145;42.726;23.342;2022-12-18T09:27:21;96634.56;;;4.63;100.00
6224;BME280;3145;42.726;23.342;2022-12-18T09:29:48;96637.47;;;4.71;100.00
6224;BME280;3145;42.726;23.342;2022-12-18T09:32:14;96633.44;;;4.78;100.00
6224;BME280;3145;42.726;23.342;2022-12-18T09:34:41;96626.09;;;4.83;100.00
6224;BME280;3145;42.726;23.342;2022-12-18T09:37:08;96577.78;;;4.53;100.00
6224;BME280;3145;42.726;23.342;2022-12-18T09:39:36;96634.69;;;4.85;100.00
6224;BME280;3145;42.726;23.342;2022-12-18T09:42:03;96636.13;;;4.89;100.00
6224;BME280;3145;42.726;23.342;2022-12-18T09:44:35;96639.41;;;4.80;100.00
6224;BME280;3145;42.726;23.342;2022-12-18T09:47:09;96635.59;;;4.73;100.00
6224;BME280;3145;42.726;23.342;2022-12-18T09:49:40;96634.72;;;4.73;100.00
6224;BME280;3145;42.726;23.342;2022-12-18T09:52:13;96639.13;;;4.72;100.00
6224;BME280;3145;42.726;23.342;2022-12-18T09:54:45;96619.88;;;4.73;100.00
6224;BME280;3145;42.726;23.342;2022-12-18T09:57:14;96634.41;;;4.77;100.00
6224;BME280;3145;42.726;23.342;2022-12-18T09:59:42;96634.91;;;4.82;100.00
6224;BME280;3145;42.726;23.342;2022-12-18T10:02:15;96640.63;;;4.87;100.00
6224;BME280;3145;42.726;23.342;2022-12-18T10:04:43;96619.63;;;4.76;100.00
6224;BME280;3145;42.726;23.342;2022-12-18T10:07:18;96631.59;;;4.91;100.00
6224;BME280;3145;42.726;23.342;2022-12-18T10:09:55;96619.94;;;4.95;100.00
6224;BME280;3145;42.726;23.342;2022-12-18T10:12:32;96625.03;;;4.86;100.00
6224;BME280;3145;42.726;23.342;2022-12-18T10:15:10;96637.19;;;4.87;100.00
6224;BME280;3145;42.726;23.342;2022-12-18T10:17:42;96583.66;;;4.67;100.00
6224;BME280;3145;42.726;23.342;2022-12-18T10:20:14;96592.00;;;4.72;100.00
6224;BME280;3145;42.726;23.342;2022-12-18T10:22:49;96626.75;;;4.98;100.00
6224;BME280;3145;42.726;23.342;2022-12-18T10:25:23;96628.44;;;5.10;100.00
6224;BME280;3145;42.726;23.342;2022-12-18T10:27:53;96584.94;;;4.96;100.00
6224;BME280;3145;42.726;23.342;2022-12-18T10:30:22;96630.31;;;5.32;100.00
6224;BME280;3145;42.726;23.342;2022-12-18T10:32:50;96606.47;;;5.13;100.00
6224;BME280;3145;42.726;23.342;2022-12-18T10:35:18;96594.28;;;5.12;100.00
6224;BME280;3145;42.726;23.342;2022-12-18T10:38:06;96635.22;;;5.36;100.00
6224;BME280;3145;42.726;23.342;2022-12-18T10:40:48;96604.31;;;5.18;100.00
6224;BME280;3145;42.726;23.342;2022-12-18T10:43:19;96630.56;;;5.40;100.00
6224;BME280;3145;42.726;23.342;2022-12-18T10:48:53;96545.94;;;5.04;100.00
6224;BME280;3145;42.726;23.342;2022-12-18T10:51:23;96624.16;;;5.55;100.00
6224;BME280;3145;42.726;23.342;2022-12-18T10:53:54;96631.31;;;5.53;100.00
6224;BME280;3145;42.726;23.342;2022-12-18T10:56:24;96632.63;;;5.47;100.00
6224;BME280;3145;42.726;23.342;2022-12-18T10:58:56;96610.06;;;5.34;100.00
6224;BME280;3145;42.726;23.342;2022-12-18T11:01:23;96630.47;;;5.52;100.00
6224;BME280;3145;42.726;23.342;2022-12-18T11:03:59;96612.47;;;5.37;100.00
6224;BME280;3145;42.726;23.342;2022-12-18T11:06:27;96560.19;;;4.89;100.00
6224;BME280;3145;42.726;23.342;2022-12-18T11:08:59;96265.78;;;3.25;100.00
6224;BME280;3145;42.726;23.342;2022-12-18T11:11:28;96601.00;;;5.27;100.00
6224;BME280;3145;42.726;23.342;2022-12-18T11:13:59;96627.72;;;5.43;100.00
6224;BME280;3145;42.726;23.342;2022-12-18T11:16:28;96624.72;;;5.36;100.00
6224;BME280;3145;42.726;23.342;2022-12-18T11:19:17;96626.06;;;5.42;100.00
6224;BME280;3145;42.726;23.342;2022-12-18T11:21:46;96628.69;;;5.42;100.00
6224;BME280;3145;42.726;23.342;2022-12-18T11:24:20;96589.19;;;5.21;100.00
6224;BME280;3145;42.726;23.342;2022-12-18T11:26:49;96632.50;;;5.60;100.00
6224;BME280;3145;42.726;23.342;2022-12-18T11:29:18;96610.09;;;5.45;100.00
6224;BME280;3145;42.726;23.342;2022-12-18T11:31:49;96636.09;;;5.59;100.00
6224;BME280;3145;42.726;23.342;2022-12-18T11:34:22;96640.72;;;5.55;100.00
6224;BME280;3145;42.726;23.342;2022-12-18T11:36:52;96632.25;;;5.41;100.00
6224;BME280;3145;42.726;23.342;2022-12-18T11:39:22;96628.19;;;5.48;100.00
6224;BME280;3145;42.726;23.342;2022-12-18T11:41:54;96626.09;;;5.53;100.00
6224;BME280;3145;42.726;23.342;2022-12-18T11:44:47;96537.81;;;4.96;100.00
6224;BME280;3145;42.726;23.342;2022-12-18T11:47:23;96581.00;;;5.26;100.00
6224;BME280;3145;42.726;23.342;2022-12-18T11:49:52;96642.50;;;5.55;100.00
6224;BME280;3145;42.726;23.342;2022-12-18T11:52:23;96635.34;;;5.46;100.00
6224;BME280;3145;42.726;23.342;2022-12-18T11:54:51;96619.25;;;5.39;100.00
6224;BME280;3145;42.726;23.342;2022-12-18T11:57:28;96638.44;;;5.51;100.00
6224;BME280;3145;42.726;23.342;2022-12-18T12:00:04;96632.38;;;5.50;100.00
6224;BME280;3145;42.726;23.342;2022-12-18T12:02:47;96629.63;;;5.52;100.00
6224;BME280;3145;42.726;23.342;2022-12-18T12:05:31;96630.47;;;5.52;100.00
6224;BME280;3145;42.726;23.342;2022-12-18T12:08:08;96632.97;;;5.54;100.00
6224;BME280;3145;42.726;23.342;2022-12-18T12:10:48;96588.50;;;5.19;100.00
6224;BME280;3145;42.726;23.342;2022-12-18T12:13:33;96576.84;;;5.23;100.00
6224;BME280;3145;42.726;23.342;2022-12-18T12:16:12;96636.81;;;5.61;100.00
6224;BME280;3145;42.726;23.342;2022-12-18T12:18:56;96629.41;;;5.55;100.00
6224;BME280;3145;42.726;23.342;2022-12-18T12:21:37;96598.16;;;5.30;100.00
6224;BME280;3145;42.726;23.342;2022-12-18T12:24:18;96633.22;;;5.62;100.00
6224;BME280;3145;42.726;23.342;2022-12-18T12:26:54;96605.78;;;5.44;100.00
6224;BME280;3145;42.726;23.342;2022-12-18T12:29:33;96572.41;;;5.13;100.00
6224;BME280;3145;42.726;23.342;2022-12-18T12:32:15;96642.06;;;5.61;100.00
6224;BME280;3145;42.726;23.342;2022-12-18T12:34:51;96619.16;;;5.41;100.00
6224;BME280;3145;42.726;23.342;2022-12-18T12:37:27;96621.78;;;5.41;100.00
6224;BME280;3145;42.726;23.342;2022-12-18T12:39:56;96653.25;;;5.63;100.00
6224;BME280;3145;42.726;23.342;2022-12-18T12:42:29;96602.00;;;5.37;100.00
6224;BME280;3145;42.726;23.342;2022-12-18T12:45:18;96528.56;;;5.03;100.00
6224;BME280;3145;42.726;23.342;2022-12-18T12:47:48;96588.03;;;5.36;100.00
6224;BME280;3145;42.726;23.342;2022-12-18T12:50:18;96622.50;;;5.54;100.00
6224;BME280;3145;42.726;23.342;2022-12-18T12:52:47;96635.38;;;5.68;100.00
6224;BME280;3145;42.726;23.342;2022-12-18T12:55:19;96599.81;;;5.31;100.00
6224;BME280;3145;42.726;23.342;2022-12-18T12:57:55;96610.53;;;5.28;100.00
6224;BME280;3145;42.726;23.342;2022-12-18T13:00:25;96511.50;;;4.76;100.00
6224;BME280;3145;42.726;23.342;2022-12-18T13:03:01;96576.47;;;5.17;100.00
6224;BME280;3145;42.726;23.342;2022-12-18T13:05:38;96653.47;;;5.60;100.00
6224;BME280;3145;42.726;23.342;2022-12-18T13:08:09;96659.63;;;5.48;100.00
6224;BME280;3145;42.726;23.342;2022-12-18T13:10:37;96563.34;;;4.71;100.00
6224;BME280;3145;42.726;23.342;2022-12-18T13:13:06;96632.78;;;5.22;100.00
6224;BME280;3145;42.726;23.342;2022-12-18T13:15:39;96644.63;;;5.39;100.00
6224;BME280;3145;42.726;23.342;2022-12-18T13:18:20;96611.22;;;5.19;100.00
6224;BME280;3145;42.726;23.342;2022-12-18T13:20:50;96682.78;;;5.54;100.00
6224;BME280;3145;42.726;23.342;2022-12-18T13:23:27;96608.50;;;5.20;100.00
6224;BME280;3145;42.726;23.342;2022-12-18T13:25:55;96599.75;;;5.08;100.00
6224;BME280;3145;42.726;23.342;2022-12-18T13:28:48;96661.78;;;5.43;100.00